MNN weather

Marion Municipal Airport
Marion, Ohio, United States

Public forecast

Using degrees Fahrenheit for public forecast. Weather courtesy of forecast.io.

METAR (pilot weather report)

Retrieved 2019/03/26 09:53 UTC (34 minutes ago):

KMNN 260953Z AUTO 36006KT 10SM CLR M06/M10 A3033 RMK AO2 SLP282 T10611100 $

TAF (pilot weather forecast)

Closest forecast is Mansfield Lahm Regional Airport, 27.8 nm (51.4 km) ENE. Retrieved 2019/03/26 06:22 UTC (4 hours ago):

TAF KMFD 260520Z 2606/2706 03010KT P6SM SKC FM270200 VRB03KT P6SM SKC